Time;durP1;ratioP1;P1;durP2;ratioP2;P2;SDS_P1;SDS_P2;PMS_P1;PMS_P2;Temp;Humidity;BMP_temperature;BMP_pressure;BME280_temperature;BME280_humidity;BME280_pressure;Samples;Min_cycle;Max_cycle;Signal;HPM_P1;HPM_P2
2023/08/01 00:00:00;;;;;;;;;;;20.40;99.90;;;;;;5095453;28;25065;-72
2023/08/01 00:02:27;;;;;;;;;;;20.30;98.30;;;;;;5095441;28;19963;-73
2023/08/01 00:04:53;;;;;;;;;;;20.40;97.30;;;;;;5094780;28;19908;-71
2023/08/01 00:07:20;;;;;;;;;;;20.30;98.10;;;;;;5095106;28;19953;-73
2023/08/01 00:09:47;;;;;;;;;;;20.60;98.20;;;;;;5095384;28;19997;-71
2023/08/01 00:12:14;;;;;;;;;;;21.20;95.10;;;;;;5075530;28;25139;-73
2023/08/01 00:14:41;;;;;;;;;;;21.50;93.20;;;;;;5076966;28;20336;-72
2023/08/01 00:17:08;;;;;;;;;;;21.90;92.40;;;;;;5096159;28;20373;-71
2023/08/01 00:19:34;;;;;;;;;;;21.70;90.10;;;;;;5095481;28;20059;-73
2023/08/01 00:22:01;;;;;;;;;;;21.60;90.40;;;;;;5089442;28;19970;-72
2023/08/01 00:24:28;;;;;;;;;;;21.90;88.80;;;;;;5084499;28;20158;-70
2023/08/01 00:26:55;;;;;;;;;;;22.30;84.90;;;;;;5095522;28;20077;-73
2023/08/01 00:29:22;;;;;;;;;;;22.30;84.60;;;;;;5094242;28;20181;-72
2023/08/01 00:31:49;;;;;;;;;;;22.80;78.80;;;;;;5093431;28;20111;-74
2023/08/01 00:34:16;;;;;;;;;;;22.50;78.30;;;;;;5093608;28;20073;-72
2023/08/01 00:36:42;;;;;;;;;;;22.10;74.60;;;;;;5093495;28;20155;-73
2023/08/01 00:39:09;;;;;;;;;;;22.40;77.00;;;;;;5087026;28;20068;-72
2023/08/01 00:41:36;;;;;;;;;;;22.20;73.40;;;;;;5079059;28;20047;-71
2023/08/01 00:44:03;;;;;;;;;;;22.20;72.30;;;;;;5085950;28;20555;-73
2023/08/01 00:46:29;;;;;;;;;;;22.50;72.60;;;;;;5093016;28;20081;-72
2023/08/01 00:48:58;;;;;;;;;;;22.60;73.80;;;;;;5093018;28;20439;-72
2023/08/01 00:51:24;;;;;;;;;;;22.70;74.70;;;;;;5092738;28;20141;-74
2023/08/01 00:53:51;;;;;;;;;;;22.90;68.60;;;;;;5088376;28;20015;-73
2023/08/01 00:56:18;;;;;;;;;;;22.80;68.80;;;;;;5092104;28;20501;-69
2023/08/01 00:58:45;;;;;;;;;;;23.00;67.10;;;;;;5092277;28;19976;-70
2023/08/01 01:01:12;;;;;;;;;;;23.40;63.70;;;;;;5073305;28;20091;-70
2023/08/01 01:03:39;;;;;;;;;;;23.50;60.00;;;;;;5092246;28;20199;-71
2023/08/01 01:06:17;;;;;;;;;;;23.60;57.50;;;;;;5092868;28;20590;-70
2023/08/01 01:08:44;;;;;;;;;;;23.30;57.50;;;;;;5092308;28;20100;-72
2023/08/01 01:11:11;;;;;;;;;;;23.30;57.00;;;;;;5091873;28;20149;-70
2023/08/01 01:13:38;;;;;;;;;;;23.50;56.40;;;;;;5092166;28;19974;-70
2023/08/01 01:16:05;;;;;;;;;;;23.80;54.50;;;;;;5091300;28;19974;-71
2023/08/01 01:18:32;;;;;;;;;;;24.20;55.40;;;;;;5092229;28;20171;-70
2023/08/01 01:20:59;;;;;;;;;;;24.30;51.60;;;;;;5091715;28;19973;-69
2023/08/01 01:23:27;;;;;;;;;;;24.40;51.40;;;;;;5090966;28;20163;-70
2023/08/01 01:25:54;;;;;;;;;;;24.20;49.50;;;;;;5092300;28;19973;-70
2023/08/01 01:28:22;;;;;;;;;;;23.90;48.40;;;;;;5091935;28;20145;-70
2023/08/01 01:30:49;;;;;;;;;;;24.10;49.90;;;;;;5091378;28;20163;-68
2023/08/01 01:33:16;;;;;;;;;;;24.20;47.10;;;;;;5091761;28;20370;-70
2023/08/01 01:35:43;;;;;;;;;;;24.40;46.80;;;;;;5091785;28;20115;-68
2023/08/01 01:38:10;;;;;;;;;;;24.10;46.80;;;;;;5091289;28;19969;-69
2023/08/01 01:40:37;;;;;;;;;;;23.90;47.40;;;;;;5091672;28;20568;-69
2023/08/01 01:43:04;;;;;;;;;;;24.60;47.70;;;;;;5091253;28;19986;-68
2023/08/01 01:45:31;;;;;;;;;;;24.80;45.10;;;;;;5091117;28;20119;-68
2023/08/01 01:47:57;;;;;;;;;;;25.20;43.90;;;;;;5091357;28;20606;-70
2023/08/01 01:50:24;;;;;;;;;;;25.80;43.80;;;;;;5091616;28;20217;-70
2023/08/01 01:52:51;;;;;;;;;;;25.50;39.80;;;;;;5090940;28;20562;-69
2023/08/01 01:55:18;;;;;;;;;;;25.00;38.70;;;;;;5091291;28;20098;-69
2023/08/01 01:57:45;;;;;;;;;;;25.00;36.20;;;;;;5091881;28;20091;-69
2023/08/01 02:00:12;;;;;;;;;;;25.10;37.10;;;;;;5091143;28;20266;-69
2023/08/01 02:02:39;;;;;;;;;;;25.80;36.10;;;;;;5090826;28;19997;-70
2023/08/01 02:05:06;;;;;;;;;;;26.00;36.10;;;;;;5091033;28;20100;-70
2023/08/01 02:07:33;;;;;;;;;;;25.80;33.30;;;;;;5090918;28;20487;-69
2023/08/01 02:10:00;;;;;;;;;;;25.50;28.80;;;;;;5091215;28;20014;-69
2023/08/01 02:12:31;;;;;;;;;;;25.40;29.80;;;;;;5090495;28;20109;-71
2023/08/01 02:14:58;;;;;;;;;;;24.90;30.40;;;;;;5071628;28;20147;-68
2023/08/01 02:17:25;;;;;;;;;;;25.00;29.60;;;;;;5073350;28;19995;-70
2023/08/01 02:19:52;;;;;;;;;;;25.00;27.40;;;;;;5090873;28;20441;-69
2023/08/01 02:22:19;;;;;;;;;;;25.20;27.60;;;;;;5090981;28;20389;-69
2023/08/01 02:24:46;;;;;;;;;;;25.20;30.00;;;;;;5090133;28;20174;-69
2023/08/01 02:27:13;;;;;;;;;;;25.70;31.40;;;;;;5091675;28;20622;-70
2023/08/01 02:29:40;;;;;;;;;;;26.30;27.90;;;;;;5089428;28;20110;-70
2023/08/01 02:32:07;;;;;;;;;;;26.20;27.10;;;;;;5090878;28;20031;-74
2023/08/01 02:34:34;;;;;;;;;;;26.30;26.80;;;;;;5090282;28;20102;-71
2023/08/01 02:37:01;;;;;;;;;;;25.80;25.00;;;;;;5090396;28;20097;-70
2023/08/01 02:39:28;;;;;;;;;;;25.60;24.80;;;;;;5090740;28;20094;-71
2023/08/01 02:41:55;;;;;;;;;;;25.40;23.90;;;;;;5090461;28;25106;-70
2023/08/01 02:44:21;;;;;;;;;;;25.20;24.10;;;;;;5089920;28;19979;-69
2023/08/01 02:46:48;;;;;;;;;;;25.40;24.80;;;;;;5090474;28;20239;-71
2023/08/01 02:49:15;;;;;;;;;;;25.70;25.60;;;;;;5090868;28;20115;-69
2023/08/01 02:51:42;;;;;;;;;;;25.60;23.60;;;;;;5090405;28;20172;-71
2023/08/01 02:54:09;;;;;;;;;;;25.70;24.40;;;;;;5090632;28;20201;-70
2023/08/01 02:56:40;;;;;;;;;;;25.70;23.80;;;;;;5091354;28;20152;-70
2023/08/01 02:59:10;;;;;;;;;;;26.10;23.40;;;;;;5090932;28;20173;-70
2023/08/01 03:01:38;;;;;;;;;;;26.60;25.60;;;;;;5091590;28;20190;-70
2023/08/01 03:04:06;;;;;;;;;;;26.60;22.40;;;;;;5090718;28;20182;-70
2023/08/01 03:06:42;;;;;;;;;;;26.70;23.10;;;;;;5090758;28;20212;-70
2023/08/01 03:09:09;;;;;;;;;;;27.10;22.60;;;;;;5091113;28;20188;-70
2023/08/01 03:11:44;;;;;;;;;;;27.10;19.30;;;;;;5090505;28;20185;-69
2023/08/01 03:14:11;;;;;;;;;;;27.00;21.00;;;;;;5090405;28;20144;-70
2023/08/01 03:16:38;;;;;;;;;;;26.80;16.80;;;;;;5090978;28;20143;-70
2023/08/01 03:19:05;;;;;;;;;;;27.00;19.80;;;;;;5091101;28;20924;-68
2023/08/01 03:21:57;;;;;;;;;;;26.80;17.60;;;;;;5090790;28;20186;-69
2023/08/01 03:24:27;;;;;;;;;;;27.00;16.30;;;;;;5090451;28;20247;-69
2023/08/01 03:26:57;;;;;;;;;;;26.80;18.40;;;;;;5095220;28;20194;-70
2023/08/01 03:29:24;;;;;;;;;;;26.60;17.20;;;;;;5094700;28;20150;-69
2023/08/01 03:31:51;;;;;;;;;;;26.30;17.40;;;;;;5094683;28;20265;-70
2023/08/01 03:34:18;;;;;;;;;;;26.60;17.10;;;;;;5094809;28;20173;-70
2023/08/01 03:36:44;;;;;;;;;;;26.60;16.30;;;;;;5076133;28;20643;-70
2023/08/01 03:39:11;;;;;;;;;;;26.20;16.10;;;;;;5095193;28;20206;-69
2023/08/01 03:41:38;;;;;;;;;;;26.50;17.20;;;;;;5094983;28;20175;-71
2023/08/01 03:44:05;;;;;;;;;;;26.80;16.50;;;;;;5094090;28;20192;-70
2023/08/01 03:46:32;;;;;;;;;;;27.10;17.00;;;;;;5094141;28;20164;-69
2023/08/01 03:48:59;;;;;;;;;;;27.00;17.70;;;;;;5094659;28;20264;-70
2023/08/01 03:51:26;;;;;;;;;;;27.00;16.70;;;;;;5094343;28;20672;-70
2023/08/01 03:53:53;;;;;;;;;;;27.00;14.60;;;;;;5094612;28;20177;-69
2023/08/01 03:56:19;;;;;;;;;;;27.00;15.30;;;;;;5095101;28;20164;-69
2023/08/01 03:58:46;;;;;;;;;;;27.40;16.70;;;;;;5093999;28;20174;-70
2023/08/01 04:01:13;;;;;;;;;;;27.40;14.40;;;;;;5094520;28;20177;-69
2023/08/01 04:03:40;;;;;;;;;;;26.80;14.60;;;;;;5093753;28;20158;-70
2023/08/01 04:06:08;;;;;;;;;;;26.80;15.00;;;;;;5093873;28;20198;-71
2023/08/01 04:08:34;;;;;;;;;;;26.60;15.70;;;;;;5094394;28;20198;-69
2023/08/01 04:11:01;;;;;;;;;;;26.70;14.30;;;;;;5093578;28;20199;-69
2023/08/01 04:13:28;;;;;;;;;;;26.50;13.30;;;;;;5091892;28;20167;-68
2023/08/01 04:15:55;;;;;;;;;;;26.20;14.50;;;;;;5093312;28;20123;-68
2023/08/01 04:18:22;;;;;;;;;;;26.20;12.20;;;;;;5094223;28;20170;-68
2023/08/01 04:20:49;;;;;;;;;;;26.20;13.60;;;;;;5093639;28;20159;-68
2023/08/01 04:23:15;;;;;;;;;;;26.10;13.40;;;;;;5093237;28;20160;-69
2023/08/01 04:25:42;;;;;;;;;;;26.20;13.50;;;;;;5094017;28;20546;-68
2023/08/01 04:28:09;;;;;;;;;;;25.90;10.40;;;;;;5093657;28;20150;-68
2023/08/01 04:30:38;;;;;;;;;;;26.00;11.40;;;;;;5094109;28;20544;-69
2023/08/01 04:33:05;;;;;;;;;;;26.30;12.60;;;;;;5093625;28;20195;-68
2023/08/01 04:35:32;;;;;;;;;;;26.40;14.10;;;;;;5091235;28;20234;-68
2023/08/01 04:37:59;;;;;;;;;;;26.60;13.30;;;;;;5093744;28;20210;-68
2023/08/01 04:40:25;;;;;;;;;;;26.40;12.70;;;;;;5094034;28;20611;-68
2023/08/01 04:42:53;;;;;;;;;;;26.30;13.60;;;;;;5092983;28;20194;-68
2023/08/01 04:45:20;;;;;;;;;;;26.20;13.10;;;;;;5094845;28;20159;-68
2023/08/01 04:47:47;;;;;;;;;;;26.10;12.80;;;;;;5095279;28;20209;-68
2023/08/01 04:50:14;;;;;;;;;;;26.00;13.60;;;;;;5094845;28;20191;-68
2023/08/01 04:52:41;;;;;;;;;;;26.00;14.20;;;;;;5094781;28;20182;-68
2023/08/01 04:55:08;;;;;;;;;;;26.10;13.60;;;;;;5076557;28;20632;-68
2023/08/01 04:57:35;;;;;;;;;;;25.80;13.80;;;;;;5094474;28;20193;-68
2023/08/01 05:00:02;;;;;;;;;;;25.70;13.00;;;;;;5094927;28;20647;-69
2023/08/01 05:02:29;;;;;;;;;;;25.60;14.70;;;;;;5094331;28;20196;-68
2023/08/01 05:04:55;;;;;;;;;;;25.40;16.80;;;;;;5055697;28;20191;-68
2023/08/01 05:07:22;;;;;;;;;;;25.20;17.50;;;;;;5072639;28;20619;-68
2023/08/01 05:09:49;;;;;;;;;;;25.30;17.60;;;;;;5086441;28;20634;-69
2023/08/01 05:12:16;;;;;;;;;;;25.30;18.20;;;;;;5092018;28;20143;-68
2023/08/01 05:14:43;;;;;;;;;;;25.20;17.40;;;;;;5074462;28;20199;-69
2023/08/01 05:17:10;;;;;;;;;;;25.00;17.20;;;;;;5092430;28;20526;-69
2023/08/01 05:19:37;;;;;;;;;;;25.00;16.80;;;;;;5091272;28;20204;-69
2023/08/01 05:22:04;;;;;;;;;;;24.60;17.90;;;;;;5091579;28;20109;-68
2023/08/01 05:24:31;;;;;;;;;;;24.60;16.40;;;;;;5092175;28;20222;-69
2023/08/01 05:26:58;;;;;;;4.60;1.27;;;24.50;17.10;;;;;;5092554;28;20178;-69
2023/08/01 05:29:26;;;;;;;8.57;0.90;;;24.40;15.20;;;;;;5092386;28;20224;-68
2023/08/01 05:31:54;;;;;;;3.67;1.20;;;24.30;14.80;;;;;;5092668;28;20211;-68
2023/08/01 05:34:22;;;;;;;4.03;1.10;;;24.20;15.70;;;;;;5092384;28;20176;-69
2023/08/01 05:36:50;;;;;;;4.07;1.20;;;23.90;16.30;;;;;;5092791;28;20656;-68
2023/08/01 05:39:18;;;;;;;3.70;1.23;;;23.70;17.50;;;;;;5090941;28;20537;-68
2023/08/01 05:41:45;;;;;;;4.57;1.10;;;23.50;16.50;;;;;;5086759;28;20191;-68
2023/08/01 05:44:13;;;;;;;4.87;0.90;;;23.30;16.90;;;;;;5092514;28;20168;-69
2023/08/01 05:46:41;;;;;;;2.30;1.00;;;23.00;16.90;;;;;;5091796;28;20252;-69
2023/08/01 05:49:09;;;;;;;5.63;1.07;;;22.70;16.90;;;;;;5091847;28;20183;-69
2023/08/01 05:51:36;;;;;;;3.77;1.20;;;22.40;17.70;;;;;;5092171;28;20575;-69
2023/08/01 05:54:03;;;;;;;;;;;22.30;18.30;;;;;;5092022;28;20171;-69
2023/08/01 05:56:30;;;;;;;;;;;22.10;18.80;;;;;;5091778;28;20092;-69
2023/08/01 05:58:57;;;;;;;;;;;21.90;18.50;;;;;;5092336;28;20081;-71
2023/08/01 06:01:24;;;;;;;;;;;21.90;18.60;;;;;;5091554;28;20086;-69
2023/08/01 06:03:51;;;;;;;;;;;21.80;19.80;;;;;;5091357;28;20085;-68
2023/08/01 06:06:18;;;;;;;;;;;21.80;19.60;;;;;;5091565;28;20462;-68
2023/08/01 06:08:45;;;;;;;;;;;21.70;19.60;;;;;;5091780;28;20109;-68
2023/08/01 06:11:12;;;;;;;;;;;21.40;21.40;;;;;;5072195;28;20470;-69
2023/08/01 06:13:39;;;;;;;;;;;21.30;21.00;;;;;;5091455;28;20495;-69
2023/08/01 06:16:06;;;;;;;;;;;21.30;20.10;;;;;;5073758;28;20115;-68
2023/08/01 06:18:33;;;;;;;;;;;21.10;20.50;;;;;;5091390;28;20098;-68
2023/08/01 06:21:00;;;;;;;;;;;20.90;20.20;;;;;;5091613;28;20090;-68
2023/08/01 06:23:27;;;;;;;;;;;20.80;20.40;;;;;;5091641;28;20088;-68
2023/08/01 06:25:53;;;;;;;;;;;20.70;20.30;;;;;;5091381;28;20172;-68
2023/08/01 06:28:20;;;;;;;;;;;20.50;21.50;;;;;;5091748;28;20080;-70
2023/08/01 06:30:47;;;;;;;;;;;20.40;21.30;;;;;;5072677;28;20146;-69
2023/08/01 06:33:14;;;;;;;;;;;20.30;21.50;;;;;;5089929;28;20053;-68
2023/08/01 06:35:41;;;;;;;;;;;20.20;21.50;;;;;;5091206;28;19968;-68
2023/08/01 06:38:08;;;;;;;;;;;20.10;21.80;;;;;;5091519;28;20086;-68
2023/08/01 06:40:35;;;;;;;;;;;20.00;22.10;;;;;;5090348;28;19963;-68
2023/08/01 06:43:02;;;;;;;;;;;19.90;21.50;;;;;;5061954;28;25076;-68
2023/08/01 06:45:28;;;;;;;;;;;19.70;21.90;;;;;;5091038;28;20088;-68
2023/08/01 06:47:55;;;;;;;;;;;19.70;22.40;;;;;;5090766;28;20136;-68
2023/08/01 06:50:22;;;;;;;;;;;19.50;22.40;;;;;;5091138;28;19991;-68
2023/08/01 06:52:49;;;;;;;;;;;19.40;23.20;;;;;;5090131;28;20542;-68
2023/08/01 06:55:16;;;;;;;;;;;19.30;23.80;;;;;;5090683;28;19912;-68
2023/08/01 06:57:43;;;;;;;;;;;19.20;25.40;;;;;;5086549;28;25073;-68
2023/08/01 07:00:11;;;;;;;;;;;19.10;26.80;;;;;;5084768;28;19952;-68
2023/08/01 07:02:38;;;;;;;;;;;19.10;27.50;;;;;;5089573;28;20164;-69
2023/08/01 07:05:05;;;;;;;;;;;19.00;30.70;;;;;;5090125;28;20036;-68
2023/08/01 07:07:32;;;;;;;;;;;18.90;35.40;;;;;;5091946;28;20027;-68
2023/08/01 07:09:58;;;;;;;;;;;18.70;39.40;;;;;;5091790;28;20040;-68
2023/08/01 07:12:25;;;;;;;;;;;18.50;43.20;;;;;;5091475;28;20073;-68
2023/08/01 07:14:52;;;;;;;;;;;18.50;44.70;;;;;;5090962;28;20043;-69
2023/08/01 07:17:19;;;;;;;;;;;18.30;47.40;;;;;;5091983;28;20239;-68
2023/08/01 07:19:46;;;;;;;;;;;18.20;51.80;;;;;;5091955;28;25157;-68
2023/08/01 07:22:13;;;;;;;;;;;18.00;54.00;;;;;;5091117;28;24067;-69
2023/08/01 07:24:40;;;;;;;;;;;17.80;55.30;;;;;;5092604;28;19961;-69
2023/08/01 07:27:07;;;;;;;;;;;17.70;59.80;;;;;;5091713;28;20044;-68
2023/08/01 07:29:34;;;;;;;;;;;17.60;61.70;;;;;;5091155;28;20080;-68
2023/08/01 07:32:00;;;;;;;;;;;17.40;66.40;;;;;;5073537;28;19916;-68
2023/08/01 07:34:27;;;;;;;;;;;17.20;69.20;;;;;;5091705;28;24103;-68
2023/08/01 07:36:54;;;;;;;;;;;17.10;78.80;;;;;;5090771;28;19908;-68
2023/08/01 07:39:21;;;;;;;;;;;17.00;80.90;;;;;;5079585;28;20003;-69
2023/08/01 07:41:48;;;;;;;;;;;16.80;86.50;;;;;;5089641;28;19912;-69
2023/08/01 07:44:15;;;;;;;;;;;16.60;91.70;;;;;;5089863;28;19930;-70
2023/08/01 07:46:42;;;;;;;;;;;16.50;94.80;;;;;;5077956;28;19935;-69
2023/08/01 07:49:09;;;;;;;;;;;16.30;99.30;;;;;;5071255;28;20354;-68
2023/08/01 07:51:36;;;;;;;;;;;16.20;99.90;;;;;;5079018;28;20028;-69
2023/08/01 07:54:03;;;;;;;;;;;16.10;99.90;;;;;;5092066;28;20289;-69
2023/08/01 07:56:30;;;;;;;;;;;16.10;99.90;;;;;;5091179;28;24087;-69
2023/08/01 07:58:57;;;;;;;;;;;15.90;99.90;;;;;;5076840;28;19908;-71
2023/08/01 08:01:24;;;;;;;;;;;15.80;99.90;;;;;;5083894;28;19918;-70
2023/08/01 08:03:50;;;;;;;;;;;15.70;99.90;;;;;;5089618;28;25031;-70
2023/08/01 08:06:17;;;;;;;;;;;15.60;99.90;;;;;;5072334;28;25170;-69
2023/08/01 08:08:45;;;;;;;;;;;15.60;99.90;;;;;;5089496;28;20776;-69
2023/08/01 08:11:11;;;;;;;;;;;15.40;99.90;;;;;;5082297;28;20047;-70
2023/08/01 08:13:39;;;;;;;;;;;15.30;99.90;;;;;;5093728;28;19907;-70
2023/08/01 08:16:06;;;;;;;;;;;15.20;99.90;;;;;;5093197;28;20359;-69
2023/08/01 08:18:33;;;;;;;;;;;15.20;99.90;;;;;;5093876;28;20264;-69
2023/08/01 08:21:00;;;;;;;;;;;15.10;99.90;;;;;;5093223;28;20258;-69
2023/08/01 08:23:26;;;;;;;;;;;15.10;99.90;;;;;;5092800;28;20065;-69
2023/08/01 08:25:53;;;;;;;;;;;15.10;99.90;;;;;;5093630;28;24076;-70
2023/08/01 08:28:32;;;;;;;;;;;15.00;99.90;;;;;;5093048;28;25132;-68
2023/08/01 08:30:59;;;;;;;;;;;14.90;99.90;;;;;;5075028;28;19916;-71
2023/08/01 08:33:26;;;;;;;;;;;14.80;99.90;;;;;;5093132;28;24072;-68
2023/08/01 08:35:53;;;;;;;;;;;14.70;99.90;;;;;;5074876;28;24095;-68
2023/08/01 08:38:20;;;;;;;;;;;14.60;99.90;;;;;;5092814;28;19957;-68
2023/08/01 08:40:53;;;;;;;;;;;14.50;99.90;;;;;;5092997;28;25117;-69
2023/08/01 08:43:20;;;;;;;;;;;14.50;99.90;;;;;;5092777;28;24069;-68
2023/08/01 08:45:49;;;;;;;;;;;14.40;99.90;;;;;;5092393;28;24063;-68
2023/08/01 08:48:19;;;;;;;;;;;14.30;99.90;;;;;;5092672;28;25168;-69
2023/08/01 08:50:46;;;;;;;;;;;14.20;99.90;;;;;;5093360;28;19971;-69
2023/08/01 08:53:15;;;;;;;;;;;14.20;99.90;;;;;;5092669;28;24078;-71
2023/08/01 08:55:42;;;;;;;;;;;14.10;99.90;;;;;;5092499;28;24081;-69
2023/08/01 08:58:11;;;;;;;;;;;14.00;99.90;;;;;;5091888;28;20065;-68
2023/08/01 09:00:38;;;;;;;;;;;13.90;99.90;;;;;;5092214;28;24064;-71
2023/08/01 09:03:06;;;;;;;;;;;13.80;99.90;;;;;;5091596;28;19908;-70
2023/08/01 09:05:40;;;;;;;;;;;13.90;99.90;;;;;;5092417;28;20044;-70
2023/08/01 09:08:11;;;;;;;;;;;13.80;99.90;;;;;;5092030;28;19916;-69
2023/08/01 09:10:38;;;;;;;;;;;13.60;99.90;;;;;;5092640;28;20003;-68
2023/08/01 09:13:05;;;;;;;;;;;13.50;99.90;;;;;;5091927;28;24073;-69
2023/08/01 09:15:32;;;;;;;;;;;13.40;99.90;;;;;;5091702;28;19947;-68
2023/08/01 09:18:00;;;;;;;;;;;13.40;99.90;;;;;;5092541;28;24074;-70
2023/08/01 09:20:33;;;;;;;;;;;13.40;99.90;;;;;;5091590;28;25067;-69
2023/08/01 09:23:00;;;;;;;;;;;13.30;99.90;;;;;;5091569;28;19999;-69
2023/08/01 09:25:33;;;;;;;;;;;13.40;99.90;;;;;;5091910;28;24051;-70
2023/08/01 09:28:00;;;;;;;;;;;13.40;99.90;;;;;;5092004;28;19911;-70
2023/08/01 09:30:28;;;;;;;;;;;13.30;99.90;;;;;;5091432;28;19923;-68
2023/08/01 09:32:55;;;;;;;;;;;13.30;99.90;;;;;;5091690;28;25053;-69
2023/08/01 09:35:23;;;;;;;;;;;13.20;99.90;;;;;;5092070;28;19911;-70
2023/08/01 09:37:50;;;;;;;;;;;13.10;99.90;;;;;;5091432;28;25121;-69
2023/08/01 09:40:17;;;;;;;;;;;13.00;99.90;;;;;;5091596;28;19908;-68
2023/08/01 09:42:45;;;;;;;;;;;12.90;99.90;;;;;;5091794;28;20242;-68
2023/08/01 09:45:16;;;;;;;;;;;12.90;99.90;;;;;;5090368;28;19916;-68
2023/08/01 09:47:44;;;;;;;;;;;12.80;99.90;;;;;;5078474;28;25139;-69
2023/08/01 09:50:12;;;;;;;;;;;12.80;99.90;;;;;;5078975;28;20407;-69
2023/08/01 09:52:39;;;;;;;;;;;12.70;99.90;;;;;;5090140;28;19923;-68
2023/08/01 09:55:06;;;;;;;;;;;12.60;99.90;;;;;;5063747;28;24071;-68
2023/08/01 09:57:38;;;;;;;;;;;12.60;99.90;;;;;;5082174;28;24067;-68
2023/08/01 10:00:05;;;;;;;;;;;12.60;99.90;;;;;;5082610;28;19909;-69
2023/08/01 10:02:32;;;;;;;;;;;12.60;99.90;;;;;;5087159;28;20136;-69
2023/08/01 10:05:00;;;;;;;;;;;12.60;99.90;;;;;;5072103;28;24057;-71
2023/08/01 10:07:30;;;;;;;;;;;12.50;99.90;;;;;;5082179;28;20078;-69
2023/08/01 10:09:58;;;;;;;;;;;12.50;99.90;;;;;;5080989;28;20306;-69
2023/08/01 10:12:28;;;;;;;;;;;12.40;99.90;;;;;;5079265;28;19912;-70
2023/08/01 10:14:55;;;;;;;;;;;12.40;99.90;;;;;;5091432;28;19995;-69
2023/08/01 10:17:22;;;;;;;;;;;12.30;99.90;;;;;;5091500;28;19952;-70
2023/08/01 10:19:51;;;;;;;;;;;12.20;99.90;;;;;;5090464;28;19908;-70
2023/08/01 10:22:18;;;;;;;;;;;12.20;99.90;;;;;;5090854;28;20007;-69
2023/08/01 10:24:49;;;;;;;;;;;12.10;99.90;;;;;;5091132;28;20045;-70
2023/08/01 10:27:19;;;;;;;;;;;12.00;99.90;;;;;;5087278;28;19915;-70
2023/08/01 10:29:56;;;;;;;;;;;12.00;99.90;;;;;;5091584;28;19908;-68
2023/08/01 10:32:33;;;;;;;;;;;11.90;99.90;;;;;;5089752;28;24082;-69
2023/08/01 10:35:00;;;;;;;;;;;11.90;99.90;;;;;;5079283;28;24078;-69
2023/08/01 10:37:30;;;;;;;;;;;11.90;99.90;;;;;;5092233;28;20106;-68
2023/08/01 10:39:58;;;;;;;;;;;11.80;99.90;;;;;;5092360;28;19991;-70
2023/08/01 10:42:25;;;;;;;;;;;11.80;99.90;;;;;;5092531;28;19904;-69
2023/08/01 10:44:52;;;;;;;;;;;11.70;99.90;;;;;;5092036;28;19904;-68
2023/08/01 10:47:28;;;;;;;;;;;11.60;99.90;;;;;;5092288;28;19962;-69
2023/08/01 10:49:55;;;;;;;;;;;11.60;99.90;;;;;;5084460;28;24066;-67
2023/08/01 10:52:29;;;;;;;;;;;11.60;99.90;;;;;;5078848;28;24112;-68
2023/08/01 10:54:59;;;;;;;;;;;11.50;99.90;;;;;;5090782;28;19918;-69
2023/08/01 10:57:37;;;;;;;;;;;11.50;99.90;;;;;;5090428;28;19926;-69
2023/08/01 11:00:09;;;;;;;;;;;11.50;99.90;;;;;;5072953;28;19904;-70
2023/08/01 11:02:36;;;;;;;;;;;11.40;99.90;;;;;;5090578;28;24093;-70
2023/08/01 11:05:04;;;;;;;;;;;11.40;99.90;;;;;;5090802;28;19962;-69
2023/08/01 11:07:31;;;;;;;;;;;11.40;99.90;;;;;;5090387;28;19912;-69
2023/08/01 11:10:05;;;;;;;;;;;11.30;99.90;;;;;;5090782;28;20345;-69
2023/08/01 11:12:39;;;;;;;;;;;11.30;99.90;;;;;;5091015;28;19912;-69
2023/08/01 11:15:08;;;;;;;;;;;11.30;99.90;;;;;;5085578;28;19962;-70
2023/08/01 11:17:42;;;;;;;;;;;11.30;99.90;;;;;;5070912;28;20007;-69
2023/08/01 11:20:10;;;;;;;;;;;11.20;99.90;;;;;;5070427;28;24056;-70
2023/08/01 11:22:56;;;;;;;;;;;11.20;99.90;;;;;;5069898;28;20357;-70
2023/08/01 11:25:35;;;;;;;;;;;11.20;99.90;;;;;;5070434;28;19941;-69
2023/08/01 11:28:04;;;;;;;;;;;11.20;99.90;;;;;;5069521;28;19909;-69
2023/08/01 11:30:34;;;;;;;;;;;11.20;99.90;;;;;;5070573;28;19955;-69
2023/08/01 11:33:02;;;;;;;;;;;11.10;99.90;;;;;;5070346;28;19904;-70
2023/08/01 11:35:29;;;;;;;;;;;11.10;99.90;;;;;;5086675;28;24065;-70
2023/08/01 11:37:58;;;;;;;;;;;11.10;99.90;;;;;;5084472;28;20039;-69
2023/08/01 11:40:25;;;;;;;;;;;11.10;99.90;;;;;;5090556;28;19904;-70
2023/08/01 11:42:58;;;;;;;;;;;11.00;99.90;;;;;;5090216;28;24107;-70
2023/08/01 11:45:25;;;;;;;;;;;11.00;99.90;;;;;;5093287;28;20323;-69
2023/08/01 11:47:53;;;;;;;;;;;11.00;99.90;;;;;;5094356;28;20025;-68
2023/08/01 11:50:24;;;;;;;;;;;10.90;99.90;;;;;;5093574;28;20003;-68
2023/08/01 11:52:51;;;;;;;;;;;11.00;99.90;;;;;;5093891;28;24060;-68
2023/08/01 11:55:22;;;;;;;;;;;10.90;99.90;;;;;;5093832;28;19923;-69
2023/08/01 11:57:56;;;;;;;;;;;10.80;99.90;;;;;;5075322;28;19935;-69
2023/08/01 12:00:23;;;;;;;;;;;10.80;99.90;;;;;;5093560;28;19915;-68
2023/08/01 12:02:50;;;;;;;;;;;10.80;99.90;;;;;;5093771;28;24075;-69
2023/08/01 12:05:24;;;;;;;;;;;10.80;99.90;;;;;;5093197;28;19912;-69
2023/08/01 12:07:51;;;;;;;;;;;10.80;99.90;;;;;;5060746;28;24145;-68
2023/08/01 12:10:18;;;;;;;;;;;10.70;99.90;;;;;;5073303;28;24083;-69
2023/08/01 12:12:46;;;;;;;;;;;10.70;99.90;;;;;;5073267;28;19980;-68
2023/08/01 12:15:16;;;;;;;;;;;10.70;99.90;;;;;;5083871;28;20384;-68
2023/08/01 12:17:43;;;;;;;;;;;10.60;99.90;;;;;;5084120;28;20365;-69
2023/08/01 12:20:10;;;;;;;;;;;10.60;99.90;;;;;;5093248;28;19912;-68
2023/08/01 12:22:37;;;;;;;;;;;10.60;99.90;;;;;;5094020;28;19904;-68
2023/08/01 12:25:04;;;;;;;;;;;10.50;99.90;;;;;;5092616;28;24118;-69
2023/08/01 12:27:31;;;;;;;;;;;10.50;99.90;;;;;;5093369;28;19908;-69
2023/08/01 12:29:58;;;;;;;;;;;10.50;99.90;;;;;;5074724;28;19908;-69
2023/08/01 12:32:25;;;;;;;;;;;10.50;99.90;;;;;;5094986;28;19923;-69
2023/08/01 12:34:52;;;;;;;;;;;10.50;99.90;;;;;;5094717;28;19915;-69
2023/08/01 12:37:19;;;;;;;;;;;10.40;99.90;;;;;;5094876;28;20380;-69
2023/08/01 12:39:46;;;;;;;;;;;10.40;99.90;;;;;;5095268;28;19961;-69
2023/08/01 12:42:12;;;;;;;;;;;10.40;99.90;;;;;;5076639;28;19912;-69
2023/08/01 12:44:39;;;;;;;;;;;10.40;99.90;;;;;;5092177;28;24049;-69
2023/08/01 12:47:08;;;;;;;;;;;10.40;99.90;;;;;;5089945;28;19923;-68
2023/08/01 12:49:35;;;;;;;;;;;10.40;99.90;;;;;;5094664;28;20376;-68
2023/08/01 12:52:03;;;;;;;;;;;10.40;99.90;;;;;;5093724;28;19920;-69
2023/08/01 12:54:30;;;;;;;;;;;10.30;99.90;;;;;;5095033;28;24158;-68
2023/08/01 12:56:57;;;;;;;;;;;10.30;99.90;;;;;;5074530;28;24076;-68
2023/08/01 12:59:24;;;;;;;;;;;10.20;99.90;;;;;;5076214;28;19952;-68
2023/08/01 13:01:50;;;;;;;;;;;10.20;99.90;;;;;;5093876;28;24152;-68
2023/08/01 13:04:17;;;;;;;;;;;10.10;99.90;;;;;;5094111;28;19908;-68
2023/08/01 13:06:45;;;;;;;;;;;10.10;99.90;;;;;;5075932;28;19915;-69
2023/08/01 13:09:12;;;;;;;;;;;10.10;99.90;;;;;;5094251;28;19912;-68
2023/08/01 13:11:39;;;;;;;;;;;10.10;99.90;;;;;;5093983;28;24100;-68
2023/08/01 13:14:05;;;;;;;;;;;10.10;99.90;;;;;;5094103;28;24059;-69
2023/08/01 13:16:32;;;;;;;;;;;10.10;99.90;;;;;;5093513;28;24082;-68
2023/08/01 13:18:59;;;;;;;;;;;10.00;99.90;;;;;;5093484;28;19908;-68
2023/08/01 13:21:26;;;;;;;;;;;10.00;99.90;;;;;;5094216;28;19985;-69
2023/08/01 13:23:53;;;;;;;;;;;10.00;99.90;;;;;;5093906;28;25130;-68
2023/08/01 13:26:20;;;;;;;;;;;9.90;99.90;;;;;;5094660;28;20085;-68
2023/08/01 13:28:47;;;;;;;;;;;9.90;99.90;;;;;;5074828;28;19973;-68
2023/08/01 13:31:14;;;;;;;;;;;9.90;99.90;;;;;;5091508;28;25115;-69
2023/08/01 13:33:41;;;;;;;;;;;9.90;99.90;;;;;;5075933;28;19908;-69
2023/08/01 13:36:08;;;;;;;;;;;9.90;99.90;;;;;;5093521;28;20264;-68
2023/08/01 13:38:35;;;;;;;;;;;10.00;99.90;;;;;;5088473;28;19908;-69
2023/08/01 13:41:02;;;;;;;;;;;10.00;99.90;;;;;;5093118;28;20018;-69
2023/08/01 13:43:29;;;;;;;;;;;10.10;99.90;;;;;;5092986;28;19948;-69
2023/08/01 13:45:56;;;;;;;;;;;10.10;99.90;;;;;;5093620;28;20311;-69
2023/08/01 13:48:23;;;;;;;;;;;10.20;99.90;;;;;;5093205;28;19950;-69
2023/08/01 13:50:50;;;;;;;;;;;10.20;99.90;;;;;;5093107;28;19916;-69
2023/08/01 13:53:17;;;;;;;;;;;10.30;99.90;;;;;;5093092;28;20273;-68
2023/08/01 13:55:44;;;;;;;;;;;10.30;99.90;;;;;;5093362;28;19916;-68
2023/08/01 13:58:10;;;;;;;;;;;10.30;99.90;;;;;;5092466;28;19987;-68
2023/08/01 14:00:37;;;;;;;;;;;10.20;99.90;;;;;;5093273;28;20001;-69
2023/08/01 14:03:04;;;;;;;;;;;10.20;99.90;;;;;;5093311;28;19998;-68
2023/08/01 14:05:31;;;;;;;;;;;10.10;99.90;;;;;;5093137;28;19912;-69
2023/08/01 14:07:59;;;;;;;;;;;10.10;99.90;;;;;;5093163;28;19915;-69
2023/08/01 14:10:26;;;;;;;;;;;10.10;99.90;;;;;;5092209;28;20003;-68
2023/08/01 14:12:53;;;;;;;;;;;10.10;99.90;;;;;;5093009;28;19910;-68
2023/08/01 14:15:20;;;;;;;;;;;10.10;99.90;;;;;;5093473;28;20007;-69